Time;durP1;ratioP1;P1;durP2;ratioP2;P2;SDS_P1;SDS_P2;PMS_P1;PMS_P2;Temp;Humidity;BMP_temperature;BMP_pressure;BME280_temperature;BME280_humidity;BME280_pressure;Samples;Min_cycle;Max_cycle;Signal;HPM_P1;HPM_P2
2022/12/23 00:00:56;;;;;;;48.23;27.80;;;;;;;2.02;100.00;31713.53;5091680;28;20575;-64
2022/12/23 00:03:23;;;;;;;50.17;28.07;;;;;;;1.67;100.00;35638.59;5091726;28;20252;-66
2022/12/23 00:05:50;;;;;;;52.63;26.77;;;;;;;1.41;100.00;36994.28;5091673;28;20180;-65
2022/12/23 00:08:18;;;;;;;53.27;27.47;;;;;;;1.44;100.00;36131.16;5091629;28;20596;-66
2022/12/23 00:10:45;;;;;;;43.60;27.10;;;;;;;1.40;100.00;34626.78;5091536;28;20183;-66
2022/12/23 00:16:06;;;;;;;42.50;25.10;;;;;;;1.55;100.00;31967.56;5091521;28;20674;-67
2022/12/23 00:18:34;;;;;;;37.97;26.17;;;;;;;1.58;100.00;31837.38;5091386;28;20275;-65
2022/12/23 00:21:02;;;;;;;39.40;25.17;;;;;;;1.51;100.00;33960.34;5091494;28;20627;-65
2022/12/23 00:23:29;;;;;;;41.83;27.43;;;;;;;1.44;100.00;36446.66;5091084;28;20262;-64
2022/12/23 00:25:56;;;;;;;44.00;26.93;;;;;;;1.51;100.00;36329.34;5091045;28;20180;-64
2022/12/23 00:28:26;;;;;;;47.63;26.83;;;;;;;1.27;100.00;36520.75;5091081;28;20230;-65
2022/12/23 00:30:54;;;;;;;52.17;26.73;;;;;;;1.34;100.00;36736.69;5091090;28;20192;-65
2022/12/23 00:33:25;;;;;;;53.83;26.30;;;;;;;1.18;100.00;36904.84;5091193;28;20207;-65
2022/12/23 00:35:52;;;;;;;45.77;25.73;;;;;;;1.23;100.00;33588.06;5092662;28;20211;-66
2022/12/23 00:42:52;;;;;;;40.30;25.90;;;;;;;1.21;100.00;34130.84;5095337;28;20550;-66
2022/12/23 00:43:55;;;;;;;52.10;26.20;;;;;;;1.37;100.00;34538.25;5095281;28;20270;-64
2022/12/23 00:46:22;;;;;;;38.40;24.43;;;;;;;1.48;100.00;34674.00;5095275;28;20184;-65
2022/12/23 00:51:34;;;;;;;50.33;25.67;;;;;;;1.51;100.00;37685.03;5095349;28;20598;-65
2022/12/23 00:54:01;;;;;;;39.77;24.77;;;;;;;1.63;100.00;40215.28;5095217;28;20183;-65
2022/12/23 00:56:28;;;;;;;38.20;25.67;;;;;;;1.54;100.00;41743.06;5095623;28;20623;-66
2022/12/23 00:58:55;;;;;;;44.47;26.57;;;;;;;1.45;100.00;39861.34;5095027;28;20195;-65
2022/12/23 01:06:53;;;;;;;54.00;27.87;;;;;;;1.20;100.00;36580.81;5097260;28;20175;-69
2022/12/23 01:09:19;;;;;;;44.10;27.67;;;;;;;1.31;100.00;36339.38;5097602;28;20204;-67
2022/12/23 01:11:46;;;;;;;46.27;26.57;;;;;;;1.39;100.00;37936.03;5097153;28;20184;-67
2022/12/23 01:14:13;;;;;;;47.93;27.93;;;;;;;1.42;100.00;39010.50;5098087;28;20203;-66
2022/12/23 01:16:40;;;;;;;48.60;26.83;;;;;;;1.34;100.00;38059.50;5097615;28;20657;-66
2022/12/23 01:19:09;;;;;;;48.10;27.17;;;;;;;1.19;100.00;37474.91;5096834;28;20634;-66
2022/12/23 01:21:35;;;;;;;42.07;28.63;;;;;;;1.22;100.00;39665.91;5096008;28;20196;-65
2022/12/23 01:24:03;;;;;;;54.47;28.30;;;;;;;0.90;100.00;40417.25;5094966;28;20184;-65
2022/12/23 01:26:29;;;;;;;55.70;29.57;;;;;;;0.87;100.00;37250.38;5094270;28;20181;-64
2022/12/23 01:28:57;;;;;;;57.90;29.97;;;;;;;0.80;100.00;39179.16;5094605;28;20588;-65
2022/12/23 01:31:25;;;;;;;46.07;28.43;;;;;;;1.09;100.00;34876.13;5094893;28;20184;-65
2022/12/23 01:33:53;;;;;;;51.00;29.20;;;;;;;1.11;100.00;35531.13;5094725;28;20184;-65
2022/12/23 01:36:22;;;;;;;52.13;30.57;;;;;;;1.08;100.00;33725.53;5094528;28;20191;-64
2022/12/23 01:38:49;;;;;;;65.47;34.30;;;;;;;1.24;100.00;32255.06;5094439;28;20184;-64
2022/12/23 01:42:42;;;;;;;58.73;34.20;;;;;;;1.22;100.00;30921.19;5094368;28;20181;-64
2022/12/23 01:44:37;;;;;;;64.63;33.47;;;;;;;1.41;100.00;29598.63;5093851;28;20250;-64
2022/12/23 01:47:08;;;;;;;53.87;32.80;;;;;;;1.45;100.00;29858.63;5093071;28;20206;-65
2022/12/23 01:49:34;;;;;;;60.50;33.47;;;;;;;1.46;100.00;29591.13;5093884;28;20208;-66
2022/12/23 01:52:03;;;;;;;51.97;32.30;;;;;;;1.46;100.00;29104.72;5093780;28;20195;-65
2022/12/23 01:54:30;;;;;;;50.60;31.13;;;;;;;1.40;100.00;28198.53;5093784;28;20199;-65
2022/12/23 01:56:58;;;;;;;44.73;29.87;;;;;;;1.48;100.00;28649.22;5093847;28;20587;-65
2022/12/23 02:04:52;;;;;;;45.53;27.00;;;;;;;1.61;100.00;34995.38;5093672;28;20195;-65
2022/12/23 02:10:06;;;;;;;43.73;26.33;;;;;;;1.17;100.00;37379.41;5093308;28;20211;-65
2022/12/23 02:12:45;;;;;;;51.63;26.67;;;;;;;1.39;100.00;32780.41;5093665;28;20184;-66
2022/12/23 02:18:38;;;;;;;43.87;26.97;;;;;;;1.50;100.00;35475.75;5093350;28;20199;-65
2022/12/23 02:21:22;;;;;;;42.83;26.57;;;;;;;1.50;100.00;37144.50;5093259;28;20184;-66
2022/12/23 02:24:22;;;;;;;47.77;26.63;;;;;;;1.44;100.00;39218.09;5093089;28;20188;-64
2022/12/23 02:27:30;;;;;;;43.90;27.90;;;;;;;1.31;100.00;40090.38;5093017;28;20327;-65
2022/12/23 02:30:27;;;;;;;43.00;27.27;;;;;;;1.30;100.00;39701.75;5030576;28;20225;-64
2022/12/23 02:33:27;;;;;;;47.70;28.80;;;;;;;1.35;100.00;39152.81;5030835;28;20686;-65
2022/12/23 02:36:07;;;;;;;57.70;32.43;;;;;;;1.32;100.00;36841.97;5083683;28;20200;-64
2022/12/23 02:38:48;;;;;;;61.23;32.67;;;;;;;1.27;100.00;34462.78;5093025;28;20184;-66
2022/12/23 02:41:20;;;;;;;65.13;33.37;;;;;;;1.30;100.00;34829.94;5092818;28;20286;-64
2022/12/23 02:43:51;;;;;;;58.20;33.30;;;;;;;1.34;100.00;34789.88;5092777;28;20233;-66
2022/12/23 02:46:25;;;;;;;66.77;36.43;;;;;;;1.48;100.00;35414.81;5092876;28;20220;-65
2022/12/23 02:48:57;;;;;;;67.07;37.07;;;;;;;1.47;100.00;33851.06;5093133;28;20627;-64
2022/12/23 02:51:29;;;;;;;66.70;36.70;;;;;;;1.19;100.00;34450.38;5092910;28;20208;-64
2022/12/23 02:53:59;;;;;;;65.63;34.73;;;;;;;1.12;100.00;36774.44;5092673;28;20191;-66
2022/12/23 02:56:30;;;;;;;60.17;34.23;;;;;;;1.07;100.00;38670.69;5092793;28;20211;-65
2022/12/23 02:59:01;;;;;;;54.17;33.67;;;;;;;1.23;100.00;38937.94;5092575;28;20657;-66
2022/12/23 03:01:32;;;;;;;66.60;35.37;;;;;;;1.01;100.00;40969.72;5092304;28;20191;-64
2022/12/23 03:03:59;;;;;;;58.80;32.77;;;;;;;1.00;100.00;39608.09;5092636;28;20573;-65
2022/12/23 03:06:31;;;;;;;71.67;34.30;;;;;;;0.98;100.00;40683.88;5092764;28;20562;-65
2022/12/23 03:08:59;;;;;;;73.90;35.93;;;;;;;1.01;100.00;41504.78;5092216;28;20199;-65
2022/12/23 03:11:38;;;;;;;70.30;36.90;;;;;;;1.00;100.00;39302.19;5092900;28;20292;-65
2022/12/23 03:14:28;;;;;;;65.77;35.83;;;;;;;0.73;100.00;38060.72;5092392;28;20209;-66
2022/12/23 03:17:07;;;;;;;70.00;38.00;;;;;;;1.13;100.00;35894.91;5092219;28;20195;-64
2022/12/23 03:19:40;;;;;;;59.90;35.83;;;;;;;1.10;100.00;32885.25;5092188;28;20180;-64
2022/12/23 03:22:14;;;;;;;53.33;32.17;;;;;;;1.25;100.00;28848.31;5091864;28;20184;-66
2022/12/23 03:24:47;;;;;;;54.73;33.30;;;;;;;1.34;100.00;28329.63;5092193;28;20183;-65
2022/12/23 03:27:18;;;;;;;67.87;35.57;;;;;;;1.58;100.00;28307.03;5091835;28;20224;-66
2022/12/23 03:29:53;;;;;;;65.60;34.13;;;;;;;1.70;100.00;30356.41;5091793;28;20181;-65
2022/12/23 03:32:24;;;;;;;53.50;31.97;;;;;;;1.65;100.00;34669.66;5092147;28;20194;-65
2022/12/23 03:34:53;;;;;;;53.40;31.43;;;;;;;1.57;100.00;39680.28;5092224;28;20207;-65
2022/12/23 03:37:22;;;;;;;68.90;38.43;;;;;;;1.50;100.00;43469.31;5092270;28;20595;-65
2022/12/23 03:39:57;;;;;;;62.23;36.23;;;;;;;1.42;100.00;44382.44;5091745;28;20199;-66
2022/12/23 03:42:29;;;;;;;64.20;34.93;;;;;;;1.49;100.00;43750.16;5092254;28;20207;-65
2022/12/23 03:44:59;;;;;;;69.43;34.90;;;;;;;1.31;100.00;45102.41;5092110;28;20188;-66
2022/12/23 03:47:31;;;;;;;67.23;35.67;;;;;;;1.04;100.00;41440.13;5091630;28;20188;-65
2022/12/23 03:50:03;;;;;;;51.13;31.97;;;;;;;1.15;100.00;37221.41;5091950;28;20211;-65
2022/12/23 03:52:35;;;;;;;63.00;32.80;;;;;;;0.91;100.00;35844.16;5091939;28;20184;-65
2022/12/23 03:55:05;;;;;;;57.57;31.33;;;;;;;0.77;100.00;40196.53;5092379;28;20196;-65
2022/12/23 03:57:40;;;;;;;53.53;31.70;;;;;;;0.58;100.00;40320.06;5091625;28;20184;-66
2022/12/23 04:00:10;;;;;;;70.97;32.27;;;;;;;0.80;100.00;38614.81;5091534;28;20278;-65
2022/12/23 04:02:45;;;;;;;64.57;33.33;;;;;;;0.83;100.00;39439.84;5091849;28;20278;-66
2022/12/23 04:05:21;;;;;;;71.77;32.50;;;;;;;0.70;100.00;40024.94;5091892;28;20199;-65
2022/12/23 04:07:54;;;;;;;71.37;32.33;;;;;;;0.79;100.00;40698.25;5091688;28;20694;-66
2022/12/23 04:10:23;;;;;;;58.97;32.50;;;;;;;0.75;100.00;40508.81;5091776;28;20210;-66
2022/12/23 04:12:51;;;;;;;55.30;32.23;;;;;;;0.72;100.00;40436.66;5095948;28;20678;-66
2022/12/23 04:15:21;;;;;;;60.37;33.00;;;;;;;0.92;100.00;38546.00;5095539;28;20202;-66
2022/12/23 04:17:50;;;;;;;65.57;34.13;;;;;;;1.10;100.00;36897.44;5096042;28;20215;-66
2022/12/23 04:20:17;;;;;;;60.30;35.10;;;;;;;1.25;100.00;35139.59;5095491;28;20191;-66
2022/12/23 04:22:44;;;;;;;69.87;37.20;;;;;;;1.41;100.00;33929.09;5095743;28;20185;-65
2022/12/23 04:25:11;;;;;;;69.07;38.37;;;;;;;1.52;100.00;33642.88;5096155;28;20180;-66
2022/12/23 04:27:39;;;;;;;70.53;39.77;;;;;;;1.47;100.00;36689.84;5095376;28;20613;-66
2022/12/23 04:30:08;;;;;;;65.33;36.63;;;;;;;1.25;100.00;40016.78;5095243;28;20188;-66
2022/12/23 04:32:35;;;;;;;80.83;39.87;;;;;;;1.16;100.00;43981.25;5095559;28;20256;-66
2022/12/23 04:35:04;;;;;;;75.47;40.60;;;;;;;1.24;100.00;40742.84;5095434;28;20184;-65
2022/12/23 04:37:31;;;;;;;90.50;43.87;;;;;;;1.21;100.00;40581.38;5095757;28;20215;-66
2022/12/23 04:39:57;;;;;;;83.10;42.70;;;;;;;1.37;100.00;39464.94;5095238;28;20207;-66
2022/12/23 04:42:24;;;;;;;75.93;42.03;;;;;;;1.37;100.00;41987.38;5095295;28;20188;-65
2022/12/23 04:44:51;;;;;;;69.50;39.57;;;;;;;1.36;100.00;42494.41;5095579;28;20191;-65
2022/12/23 04:47:18;;;;;;;81.23;39.60;;;;;;;1.16;100.00;42332.44;5095007;28;20192;-64
2022/12/23 04:49:47;;;;;;;77.33;41.23;;;;;;;1.11;100.00;41788.81;5095012;28;20181;-64
2022/12/23 04:52:16;;;;;;;88.10;38.80;;;;;;;1.25;100.00;41104.53;5095139;28;20277;-64
2022/12/23 04:54:44;;;;;;;80.43;41.13;;;;;;;1.05;100.00;39967.72;5094896;28;20199;-64
2022/12/23 04:57:11;;;;;;;85.07;43.37;;;;;;;1.05;100.00;37500.34;5095014;28;20196;-64
2022/12/23 04:59:37;;;;;;;85.53;43.17;;;;;;;1.04;100.00;35549.06;5094717;28;20643;-65
2022/12/23 05:02:04;;;;;;;105.07;44.43;;;;;;;1.10;100.00;36017.56;5094722;28;20184;-65
2022/12/23 05:04:31;;;;;;;85.10;42.20;;;;;;;1.13;100.00;37466.25;5095140;28;20190;-65
2022/12/23 05:06:58;;;;;;;99.03;47.67;;;;;;;1.27;100.00;37229.06;5094607;28;20184;-65
2022/12/23 05:09:26;;;;;;;102.47;50.20;;;;;;;1.33;100.00;36452.22;5094751;28;20188;-66
2022/12/23 05:11:53;;;;;;;111.70;49.67;;;;;;;1.49;100.00;37027.25;5094308;28;20215;-65
2022/12/23 05:14:20;;;;;;;105.37;52.93;;;;;;;1.61;100.00;38187.00;5094366;28;20198;-66
2022/12/23 05:16:47;;;;;;;102.13;51.77;;;;;;;1.69;100.00;39584.50;5094471;28;20196;-65
2022/12/23 05:19:14;;;;;;;101.53;49.87;;;;;;;1.65;100.00;42566.06;5094409;28;20188;-65
2022/12/23 05:21:40;;;;;;;109.90;52.23;;;;;;;1.54;100.00;46691.25;5094193;28;20188;-65
2022/12/23 05:24:10;;;;;;;101.73;51.67;;;;;;;1.35;100.00;46282.44;5094305;28;20180;-65
2022/12/23 05:26:39;;;;;;;119.23;55.87;;;;;;;1.23;100.00;41745.03;5094455;28;20660;-66
2022/12/23 05:29:05;;;;;;;122.60;55.47;;;;;;;1.15;100.00;36920.59;5093760;28;20651;-65
2022/12/23 05:31:34;;;;;;;114.53;54.73;;;;;;;1.27;100.00;33841.66;5094534;28;20577;-66
2022/12/23 05:34:00;;;;;;;110.03;53.83;;;;;;;1.49;100.00;32990.03;5094312;28;20203;-66
2022/12/23 05:36:28;;;;;;;119.70;56.00;;;;;;;1.47;100.00;33142.59;5094519;28;20199;-66
2022/12/23 05:38:56;;;;;;;101.60;50.23;;;;;;;1.72;100.00;34094.69;5094261;28;20198;-66
2022/12/23 05:41:23;;;;;;;118.97;49.90;;;;;;;1.71;100.00;35561.22;5092828;28;20192;-65
2022/12/23 05:43:51;;;;;;;105.70;49.37;;;;;;;1.92;100.00;35582.06;5094359;28;20267;-66
2022/12/23 05:46:18;;;;;;;100.67;48.93;;;;;;;1.86;100.00;37767.97;5094278;28;20192;-65
2022/12/23 05:48:45;;;;;;;104.80;50.67;;;;;;;2.01;100.00;37788.38;5094221;28;20558;-66
2022/12/23 05:51:11;;;;;;;109.97;52.27;;;;;;;2.09;100.00;35662.59;5093687;28;20214;-65
2022/12/23 05:53:38;;;;;;;113.83;50.87;;;;;;;2.41;100.00;34865.69;5094141;28;20184;-65
2022/12/23 05:56:06;;;;;;;100.60;50.07;;;;;;;2.62;100.00;33442.16;5093713;28;20192;-66
2022/12/23 05:58:33;;;;;;;102.57;49.80;;;;;;;2.85;100.00;32706.19;5094000;28;20270;-65
2022/12/23 06:01:03;;;;;;;104.50;49.13;;;;;;;2.89;100.00;37248.22;5093562;28;20226;-66
2022/12/23 06:03:29;;;;;;;112.60;50.17;;;;;;;3.29;100.00;35568.72;5093774;28;20199;-65
2022/12/23 06:05:56;;;;;;;79.37;39.10;;;;;;;3.51;100.00;35278.41;5093554;28;20180;-66
2022/12/23 06:08:24;;;;;;;106.47;46.67;;;;;;;3.69;100.00;40973.06;5092579;28;20188;-65
2022/12/23 06:10:50;;;;;;;94.37;37.57;;;;;;;4.07;100.00;48471.56;5093341;28;20207;-65
2022/12/23 06:13:17;;;;;;;66.10;33.97;;;;;;;4.45;100.00;65560.06;5093566;28;20221;-65
2022/12/23 06:15:44;;;;;;;69.50;29.70;;;;;;;4.91;100.00;81794.91;5093680;28;20184;-64
2022/12/23 06:18:12;;;;;;;67.80;26.37;;;;;;;5.23;100.00;109866.97;5093341;28;20555;-65
2022/12/23 06:20:39;;;;;;;64.73;30.37;;;;;;;5.61;100.00;147460.69;5093122;28;20187;-64
2022/12/23 06:23:06;;;;;;;82.47;33.50;;;;;;;5.99;100.00;147555.16;5093396;28;20628;-63
2022/12/23 06:25:33;;;;;;;75.30;32.37;;;;;;;6.38;100.00;147653.41;5093215;28;20184;-64
2022/12/23 06:28:00;;;;;;;116.30;37.80;;;;;;;6.66;100.00;147721.47;5093273;28;20267;-65
2022/12/23 06:30:27;;;;;;;103.47;35.20;;;;;;;7.02;100.00;147810.91;5093333;28;20185;-64
2022/12/23 06:32:53;;;;;;;86.50;36.27;;;;;;;7.34;100.00;147891.59;5092905;28;20657;-63
2022/12/23 06:35:22;;;;;;;78.37;39.40;;;;;;;7.31;100.00;147885.28;5092608;28;20195;-63
2022/12/23 06:37:48;;;;;;;100.57;45.63;;;;;;;7.49;100.00;147929.41;5093007;28;20195;-64
2022/12/23 06:40:15;;;;;;;81.33;43.83;;;;;;;7.56;100.00;147945.78;5093192;28;20195;-64
2022/12/23 06:42:42;;;;;;;86.97;44.77;;;;;;;8.17;100.00;148098.41;5092968;28;20187;-64
2022/12/23 06:45:10;;;;;;;101.00;45.63;;;;;;;8.80;100.00;148254.91;5092701;28;20188;-64
2022/12/23 06:47:37;;;;;;;100.63;45.90;;;;;;;8.88;100.00;148276.38;5093049;28;20238;-64
2022/12/23 06:50:05;;;;;;;96.37;48.30;;;;;;;8.48;100.00;148176.69;5092385;28;20199;-64
2022/12/23 06:52:33;;;;;;;93.53;49.13;;;;;;;9.10;100.00;148331.94;5092658;28;20720;-64
2022/12/23 06:55:00;;;;;;;100.43;51.93;;;;;;;9.36;100.00;148396.34;5092535;28;20184;-64
2022/12/23 06:57:27;;;;;;;90.90;52.53;;;;;;;9.28;100.00;148376.13;5092848;28;20198;-63
2022/12/23 06:59:54;;;;;;;99.77;54.40;;;;;;;9.03;100.00;148313.00;5092724;28;20184;-63
2022/12/23 07:02:21;;;;;;;106.63;55.00;;;;;;;9.08;100.00;148325.63;5092511;28;20271;-64
2022/12/23 07:04:48;;;;;;;114.77;59.10;;;;;;;9.14;100.00;148340.75;5092196;28;20275;-64
2022/12/23 07:07:14;;;;;;;103.60;56.13;;;;;;;9.14;100.00;148342.03;5092566;28;20180;-64
2022/12/23 07:09:43;;;;;;;108.23;59.43;;;;;;;8.68;100.00;148225.91;5092315;28;20180;-63
2022/12/23 07:12:10;;;;;;;113.80;58.93;;;;;;;8.44;100.00;148165.34;5092303;28;20257;-63
2022/12/23 07:14:36;;;;;;;123.57;59.47;;;;;;;7.73;100.00;147989.91;5092509;28;20554;-63
2022/12/23 07:17:03;;;;;;;112.37;60.67;;;;;;;7.86;100.00;148020.19;5091991;28;20180;-63
2022/12/23 07:19:30;;;;;;;128.23;65.47;;;;;;;7.61;100.00;147959.66;5092060;28;20187;-63
2022/12/23 07:21:57;;;;;;;139.80;67.50;;;;;;;7.43;100.00;147914.25;5091907;28;20204;-63
2022/12/23 07:24:24;;;;;;;119.20;65.13;;;;;;;7.73;100.00;147989.91;5092040;28;20195;-64
2022/12/23 07:26:54;;;;;;;118.10;63.50;;;;;;;7.63;100.00;147964.72;5091883;28;20775;-64
2022/12/23 07:29:21;;;;;;;125.80;64.43;;;;;;;7.76;100.00;147997.53;5091931;28;20187;-64
2022/12/23 07:31:48;;;;;;;141.23;68.00;;;;;;;7.73;100.00;147989.91;5092137;28;20208;-63
2022/12/23 07:34:15;;;;;;;132.20;69.17;;;;;;;7.96;100.00;148045.44;5091781;28;20196;-64
2022/12/23 07:36:42;;;;;;;152.87;67.23;;;;;;;8.14;100.00;148090.84;5092456;28;20722;-64
2022/12/23 07:39:09;;;;;;;119.40;61.80;;;;;;;8.19;100.00;148104.69;5091870;28;20188;-64
2022/12/23 07:41:36;;;;;;;148.07;65.97;;;;;;;8.65;100.00;148218.34;5092180;28;20595;-64
2022/12/23 07:44:04;;;;;;;130.80;59.63;;;;;;;9.51;100.00;148432.94;5092018;28;20195;-64
2022/12/23 07:46:31;;;;;;;142.00;54.53;;;;;;;9.84;100.00;148516.34;5090834;28;20271;-64
2022/12/23 07:48:58;;;;;;;118.13;49.80;;;;;;;10.08;100.00;148576.97;5092515;28;20199;-64
2022/12/23 07:51:25;;;;;;;125.17;50.27;;;;;;;10.45;100.00;148669.25;5092056;28;20551;-65
2022/12/23 07:53:52;;;;;;;81.40;49.03;;;;;;;10.85;100.00;148767.88;5092290;28;20249;-63
2022/12/23 07:56:19;;;;;;;94.50;49.23;;;;;;;10.96;100.00;148796.94;5091952;28;20198;-64
2022/12/23 07:58:48;;;;;;;91.10;50.37;;;;;;;10.92;100.00;148785.56;5091540;28;20275;-63
2022/12/23 08:01:18;;;;;;;88.90;48.40;;;;;;;11.26;100.00;148871.56;5090199;28;20187;-64
2022/12/23 08:03:45;;;;;;;94.67;49.03;;;;;;;12.06;100.00;149070.22;5092080;28;20180;-64
2022/12/23 08:06:14;;;;;;;101.80;48.20;;;;;;;12.53;100.00;149187.94;5091572;28;20580;-65
2022/12/23 08:08:43;;;;;;;91.47;42.30;;;;;;;12.04;100.00;149066.44;5091518;28;20191;-65
2022/12/23 08:11:12;;;;;;;94.37;43.23;;;;;;;12.15;100.00;149093.00;5092007;28;20187;-64
2022/12/23 08:13:40;;;;;;;81.47;49.40;;;;;;;12.38;100.00;149149.97;5091859;28;20551;-64
2022/12/23 08:16:08;;;;;;;89.90;47.63;;;;;;;11.98;100.00;149051.25;5093212;28;20184;-60
2022/12/23 08:18:38;;;;;;;94.80;49.33;;;;;;;11.72;100.00;148986.69;5091163;28;20639;-59
2022/12/23 08:21:07;;;;;;;87.50;47.17;;;;;;;11.71;100.00;148984.13;5090675;28;20191;-60
2022/12/23 08:23:35;;;;;;;79.40;48.17;;;;;;;11.38;100.00;148901.91;5090844;28;20184;-60
2022/12/23 08:26:03;;;;;;;72.00;43.07;;;;;;;11.39;100.00;148904.44;5091302;28;20181;-59
2022/12/23 08:28:31;;;;;;;91.37;42.67;;;;;;;11.29;100.00;148879.13;5090986;28;20223;-60
2022/12/23 08:31:06;;;;;;;81.10;39.87;;;;;;;11.49;100.00;148927.22;5091051;28;20195;-59
2022/12/23 08:33:33;;;;;;;61.37;33.43;;;;;;;11.36;100.00;148896.84;5090661;28;20188;-59
2022/12/23 08:36:02;;;;;;;69.87;31.77;;;;;;;11.66;100.00;148970.22;5091245;28;20199;-61
2022/12/23 08:38:29;;;;;;;73.13;29.93;;;;;;;11.75;100.00;148993.06;5072959;28;20682;-59
2022/12/23 08:40:56;;;;;;;62.73;30.70;;;;;;;12.49;100.00;149177.81;5090430;28;20188;-58
2022/12/23 08:43:23;;;;;;;67.53;31.30;;;;;;;12.76;100.00;149246.19;5091376;28;20249;-60
2022/12/23 08:45:49;;;;;;;70.47;30.47;;;;;;;13.13;100.00;149338.69;5090757;28;20196;-60
2022/12/23 08:48:17;;;;;;;71.73;31.63;;;;;;;13.32;100.00;149386.84;5091424;28;20619;-59
2022/12/23 08:50:45;;;;;;;57.30;28.33;;;;;;;13.21;100.00;149360.22;5090927;28;20199;-60
2022/12/23 08:53:14;;;;;;;74.70;30.77;;;;;;;13.36;100.00;149396.97;5091101;28;20689;-60
2022/12/23 08:55:42;;;;;;;73.10;30.37;;;;;;;13.63;100.00;149464.09;5086152;28;20650;-60
2022/12/23 08:58:09;;;;;;;66.83;34.23;;;;;;;13.40;100.00;149407.09;5094129;28;20187;-59
2022/12/23 09:00:37;;;;;;;61.37;29.60;;;;;;;13.58;100.00;149452.66;5094211;28;20286;-61
2022/12/23 09:03:04;;;;;;;64.60;31.17;;;;;;;14.00;100.00;149557.84;5094086;28;20192;-60
2022/12/23 09:05:32;;;;;;;33.30;21.43;;;;;;;14.76;100.00;149748.13;5094855;28;20192;-60
2022/12/23 09:08:00;;;;;;;41.03;24.43;;;;;;;15.16;98.32;149847.00;5094755;28;20199;-60
2022/12/23 09:10:28;;;;;;;74.67;33.70;;;;;;;15.81;100.00;150010.75;5094318;28;20223;-60
2022/12/23 09:12:55;;;;;;;49.43;30.87;;;;;;;15.55;100.00;149946.03;5093358;28;20207;-60
2022/12/23 09:15:22;;;;;;;60.10;32.20;;;;;;;16.35;96.61;150146.59;5094789;28;20313;-60
2022/12/23 09:17:49;;;;;;;53.03;28.37;;;;;;;17.32;89.87;150391.78;5094466;28;20649;-59
2022/12/23 09:20:16;;;;;;;63.50;38.53;;;;;;;18.78;79.58;150756.75;5094837;28;20595;-59
2022/12/23 09:22:43;;;;;;;61.40;36.43;;;;;;;19.17;73.86;150857.25;5094682;28;20253;-60
2022/12/23 09:25:10;;;;;;;54.53;35.10;;;;;;;18.88;72.98;150783.47;5093916;28;20188;-60
2022/12/23 09:30:26;;;;;;;63.67;37.70;;;;;;;17.37;88.40;150403.22;5093000;28;20195;-60
2022/12/23 09:32:53;;;;;;;62.27;37.83;;;;;;;16.21;98.21;150111.06;5094012;28;20212;-60
2022/12/23 09:35:20;;;;;;;72.53;39.67;;;;;;;15.94;100.00;150043.78;5093863;28;20211;-59
2022/12/23 09:37:47;;;;;;;66.63;33.20;;;;;;;15.48;100.00;149929.50;5093972;28;20184;-60
2022/12/23 09:40:15;;;;;;;38.30;23.67;;;;;;;14.82;100.00;149763.31;5093518;28;20222;-59
2022/12/23 09:43:03;;;;;;;36.47;21.83;;;;;;;14.21;100.00;149609.88;5093272;28;20228;-60
2022/12/23 09:45:49;;;;;;;25.70;19.20;;;;;;;14.22;100.00;149612.34;5073441;28;20195;-59
2022/12/23 09:48:21;;;;;;;33.03;17.27;;;;;;;13.86;100.00;149522.41;5084559;28;20572;-60
2022/12/23 09:50:48;;;;;;;25.03;18.47;;;;;;;13.58;100.00;149452.66;5093489;28;20277;-60
2022/12/23 09:53:18;;;;;;;23.33;18.10;;;;;;;13.36;100.00;149395.69;5093597;28;20208;-60
2022/12/23 09:55:50;;;;;;;25.67;19.30;;;;;;;13.04;100.00;149315.81;5093587;28;20184;-59
2022/12/23 09:58:28;;;;;;;30.90;21.07;;;;;;;12.98;100.00;149300.66;5093093;28;20199;-59
2022/12/23 10:01:09;;;;;;;35.17;22.80;;;;;;;13.12;100.00;149336.13;5093235;28;20184;-60
2022/12/23 10:03:58;;;;;;;39.43;26.70;;;;;;;13.10;100.00;149331.03;5093552;28;20176;-60
2022/12/23 10:06:29;;;;;;;58.37;27.47;;;;;;;13.03;100.00;149314.53;5093332;28;20190;-60
2022/12/23 10:09:00;;;;;;;39.87;24.90;;;;;;;12.80;100.00;149256.31;5092451;28;20603;-58
2022/12/23 10:11:29;;;;;;;53.10;29.00;;;;;;;12.74;100.00;149241.09;5093463;28;20188;-60
2022/12/23 10:14:02;;;;;;;51.17;29.53;;;;;;;12.82;100.00;149261.34;5093695;28;20199;-61
2022/12/23 10:16:34;;;;;;;57.43;30.23;;;;;;;12.98;100.00;149301.91;5093893;28;20215;-61
2022/12/23 10:19:06;;;;;;;56.87;30.13;;;;;;;13.24;100.00;149367.78;5093847;28;20195;-59
2022/12/23 10:21:40;;;;;;;51.43;28.53;;;;;;;13.73;100.00;149489.44;5094195;28;20271;-60
2022/12/23 10:24:13;;;;;;;46.87;28.70;;;;;;;14.38;100.00;149653.03;5093815;28;20186;-59
2022/12/23 10:26:45;;;;;;;47.63;26.73;;;;;;;14.70;99.10;149731.59;5093375;28;20188;-59
2022/12/23 10:29:18;;;;;;;42.17;25.80;;;;;;;15.41;94.76;149910.44;5093614;28;20211;-61
2022/12/23 10:31:57;;;;;;;35.20;24.80;;;;;;;15.99;88.44;150056.47;5093575;28;20233;-59
2022/12/23 10:34:33;;;;;;;32.13;23.93;;;;;;;15.50;89.80;149934.63;5093603;28;20186;-60
2022/12/23 10:37:07;;;;;;;33.73;23.33;;;;;;;15.98;86.04;150055.19;5093549;28;20222;-59
2022/12/23 10:39:42;;;;;;;37.73;23.23;;;;;;;16.86;79.24;150276.19;5093293;28;20191;-60
2022/12/23 10:42:20;;;;;;;33.03;22.67;;;;;;;16.50;79.73;150183.44;5092623;28;20354;-59
2022/12/23 10:45:22;;;;;;;39.80;24.80;;;;;;;15.87;86.42;150026.03;5092838;28;20188;-59
2022/12/23 10:48:02;;;;;;;45.00;25.60;;;;;;;15.39;90.40;149905.41;5092774;28;20214;-59
2022/12/23 10:50:47;;;;;;;50.37;26.40;;;;;;;15.09;92.12;149830.53;5092661;28;20260;-60
2022/12/23 10:53:19;;;;;;;46.73;27.87;;;;;;;14.82;94.16;149763.31;5092412;28;20211;-59
2022/12/23 10:55:48;;;;;;;39.70;26.13;;;;;;;14.45;96.12;149670.75;5092430;28;20188;-59
2022/12/23 10:58:17;;;;;;;36.90;26.30;;;;;;;14.22;98.84;149612.34;5092583;28;20187;-59
2022/12/23 11:00:48;;;;;;;42.23;25.13;;;;;;;13.93;100.00;149538.84;5092597;28;20628;-59
2022/12/23 11:03:22;;;;;;;53.90;24.27;;;;;;;13.90;100.00;149531.25;5092100;28;20202;-60
2022/12/23 11:05:51;;;;;;;32.97;21.37;;;;;;;13.74;100.00;149492.00;5092234;28;20187;-60
2022/12/23 11:08:20;;;;;;;31.30;20.40;;;;;;;13.56;100.00;149446.34;5091843;28;20234;-59
2022/12/23 11:10:47;;;;;;;26.70;20.40;;;;;;;13.40;100.00;149407.09;5091988;28;20180;-59
2022/12/23 11:13:25;;;;;;;32.70;20.03;;;;;;;13.75;100.00;149493.25;5091661;28;20299;-59
2022/12/23 11:15:52;;;;;;;28.67;18.80;;;;;;;13.78;100.00;149502.13;5091576;28;20184;-59
2022/12/23 11:18:21;;;;;;;31.30;18.10;;;;;;;14.25;100.00;149618.72;5091160;28;20613;-59
2022/12/23 11:21:03;;;;;;;30.27;17.50;;;;;;;14.54;99.07;149692.31;5088246;28;20234;-59
2022/12/23 11:23:32;;;;;;;41.77;18.83;;;;;;;14.82;97.95;149762.03;5091861;28;20554;-59
2022/12/23 11:26:03;;;;;;;34.77;19.03;;;;;;;15.50;94.27;149933.34;5090823;28;20650;-59
2022/12/23 11:28:32;;;;;;;34.97;20.23;;;;;;;15.95;90.86;150047.56;5091503;28;20706;-59
2022/12/23 11:31:06;;;;;;;34.97;20.33;;;;;;;16.84;83.73;150271.13;5091530;28;20300;-59
2022/12/23 11:33:38;;;;;;;46.80;21.57;;;;;;;17.21;78.34;150363.84;5091511;28;20212;-59
2022/12/23 11:36:08;;;;;;;33.23;19.43;;;;;;;16.58;80.92;150205.06;5091656;28;20708;-60
2022/12/23 11:38:37;;;;;;;43.80;21.27;;;;;;;16.03;87.46;150066.63;5091687;28;20176;-59
2022/12/23 11:41:05;;;;;;;31.77;21.30;;;;;;;15.39;92.32;149906.66;5091187;28;20287;-60
2022/12/23 11:43:33;;;;;;;29.37;20.33;;;;;;;14.92;96.17;149787.41;5091204;28;20188;-60
2022/12/23 11:46:24;;;;;;;26.60;20.00;;;;;;;14.78;99.27;149751.88;5091201;28;20184;-60
2022/12/23 11:49:05;;;;;;;29.90;19.93;;;;;;;14.40;100.00;149656.78;5091218;28;20188;-60
2022/12/23 11:51:32;;;;;;;38.03;20.87;;;;;;;14.31;100.00;149635.19;5091237;28;20279;-60